Time;durP1;ratioP1;P1;durP2;ratioP2;P2;SDS_P1;SDS_P2;PMS_P1;PMS_P2;Temp;Humidity;BMP_temperature;BMP_pressure;BME280_temperature;BME280_humidity;BME280_pressure;Samples;Min_cycle;Max_cycle;Signal;HPM_P1;HPM_P2
2022/02/16 00:00:27;;;;;;;6.13;4.53;;;;;;;7.29;100.00;100152.91;2013032;29;20446;-61
2022/02/16 00:01:29;;;;;;;6.10;4.43;;;;;;;7.31;100.00;100155.44;2012976;29;20080;-61
2022/02/16 00:02:29;;;;;;;6.57;5.07;;;;;;;7.31;100.00;100155.44;2013018;29;20486;-61
2022/02/16 00:03:29;;;;;;;8.57;5.30;;;;;;;7.30;100.00;100151.16;2012962;29;20057;-62
2022/02/16 00:04:30;;;;;;;8.07;5.73;;;;;;;7.30;100.00;100145.97;2012944;29;20045;-63
2022/02/16 00:05:30;;;;;;;6.80;5.47;;;;;;;7.31;100.00;100151.09;2012991;29;20029;-62
2022/02/16 00:06:31;;;;;;;6.53;5.30;;;;;;;7.30;100.00;100143.38;2019923;29;20386;-61
2022/02/16 00:07:31;;;;;;;6.57;4.68;;;;;;;7.29;100.00;100136.50;2020010;29;20028;-63
2022/02/16 00:08:32;;;;;;;7.30;4.57;;;;;;;7.29;100.00;100137.34;2012959;29;20029;-60
2022/02/16 00:09:32;;;;;;;8.20;4.87;;;;;;;7.28;100.00;100129.59;2012897;29;20531;-61
2022/02/16 00:10:32;;;;;;;5.18;4.57;;;;;;;7.27;100.00;100125.31;2012924;29;20026;-62
2022/02/16 00:11:33;;;;;;;8.83;4.60;;;;;;;7.28;100.00;100119.22;2019838;29;20021;-61
2022/02/16 00:12:33;;;;;;;7.47;4.50;;;;;;;7.28;100.00;100119.22;2019977;29;20029;-60
2022/02/16 00:13:33;;;;;;;9.87;4.70;;;;;;;7.28;100.00;100114.03;2012872;29;20421;-60
2022/02/16 00:14:34;;;;;;;6.40;5.27;;;;;;;7.28;100.00;100108.84;2010866;29;20071;-62
2022/02/16 00:15:34;;;;;;;6.43;4.77;;;;;;;7.28;100.00;100103.66;2010958;29;20040;-61
2022/02/16 00:16:34;;;;;;;6.07;4.70;;;;;;;7.30;100.00;100109.63;2011025;29;20033;-59
2022/02/16 00:17:36;;;;;;;7.07;4.47;;;;;;;7.30;100.00;100107.91;2011596;29;20086;-62
2022/02/16 00:18:36;;;;;;;7.30;5.20;;;;;;;7.32;100.00;100095.69;2011685;29;20025;-61
2022/02/16 00:19:37;;;;;;;6.15;4.45;;;;;;;7.33;100.00;100102.56;2011583;29;20040;-61
2022/02/16 00:20:37;;;;;;;7.17;5.23;;;;;;;7.33;100.00;100110.34;2011709;29;20056;-62
2022/02/16 00:21:37;;;;;;;5.60;4.50;;;;;;;7.34;100.00;100106.00;2010983;29;20522;-60
2022/02/16 00:22:37;;;;;;;4.87;4.23;;;;;;;7.33;100.00;100110.34;2011089;29;20518;-61
2022/02/16 00:23:38;;;;;;;6.23;4.33;;;;;;;7.34;100.00;100118.97;2011684;29;20402;-61
2022/02/16 00:24:38;;;;;;;5.80;4.90;;;;;;;7.33;100.00;100114.72;2011736;29;20022;-61
2022/02/16 00:25:38;;;;;;;9.40;4.93;;;;;;;7.32;100.00;100115.59;2011604;29;20463;-60
2022/02/16 00:26:39;;;;;;;6.37;4.37;;;;;;;7.35;100.00;100115.47;2011627;29;20109;-61
2022/02/16 00:27:39;;;;;;;5.63;3.60;;;;;;;7.34;100.00;100113.78;2011571;29;20038;-60
2022/02/16 00:28:39;;;;;;;5.53;4.03;;;;;;;7.37;100.00;100108.47;2018650;29;20029;-61
2022/02/16 00:29:40;;;;;;;6.40;4.30;;;;;;;7.35;100.00;100115.47;2018658;29;20112;-60
2022/02/16 00:30:41;;;;;;;8.55;4.63;;;;;;;7.33;100.00;100099.97;2011645;29;20022;-60
2022/02/16 00:31:41;;;;;;;5.90;4.20;;;;;;;7.33;100.00;100112.13;2018639;29;20021;-61
2022/02/16 00:32:41;;;;;;;6.50;4.03;;;;;;;7.30;100.00;100105.31;2018688;29;20035;-61
2022/02/16 00:33:42;;;;;;;6.13;4.40;;;;;;;7.31;100.00;100099.19;2011592;29;20047;-60
2022/02/16 00:34:42;;;;;;;5.33;4.27;;;;;;;7.34;100.00;100098.22;2011649;29;20096;-60
2022/02/16 00:35:43;;;;;;;9.17;4.87;;;;;;;7.36;100.00;100090.38;2011549;29;20026;-60
2022/02/16 00:36:43;;;;;;;5.63;4.53;;;;;;;7.37;100.00;100098.09;2011610;29;20025;-59
2022/02/16 00:37:43;;;;;;;6.05;4.70;;;;;;;7.37;100.00;100092.91;2011552;29;20052;-60
2022/02/16 00:38:44;;;;;;;6.00;4.10;;;;;;;7.39;100.00;100095.44;2011713;29;20032;-59
2022/02/16 00:39:44;;;;;;;6.87;3.73;;;;;;;7.40;100.00;100094.53;2011527;29;20108;-60
2022/02/16 00:40:44;;;;;;;6.07;3.80;;;;;;;7.41;100.00;100091.88;2011565;29;20032;-60
2022/02/16 00:41:44;;;;;;;7.27;4.30;;;;;;;7.41;100.00;100086.69;2018541;29;20029;-61
2022/02/16 00:42:45;;;;;;;6.63;4.50;;;;;;;7.42;100.00;100090.97;2010863;29;20033;-60
2022/02/16 00:43:45;;;;;;;6.07;4.03;;;;;;;7.43;100.00;100087.44;2010930;29;20033;-61
2022/02/16 00:44:46;;;;;;;6.17;3.73;;;;;;;7.46;100.00;100081.31;2011572;29;20033;-60
2022/02/16 00:45:46;;;;;;;6.53;4.25;;;;;;;7.45;100.00;100084.78;2011528;29;20017;-62
2022/02/16 00:46:46;;;;;;;5.57;4.03;;;;;;;7.44;100.00;100083.97;2011397;29;20430;-60
2022/02/16 00:47:47;;;;;;;9.90;5.17;;;;;;;7.45;100.00;100085.66;2011483;29;20399;-60
2022/02/16 00:48:47;;;;;;;5.43;3.85;;;;;;;7.45;100.00;100070.06;2011380;29;20041;-61
2022/02/16 00:49:48;;;;;;;7.23;4.27;;;;;;;7.47;100.00;100078.63;2011503;29;20343;-61
2022/02/16 00:50:48;;;;;;;5.97;3.67;;;;;;;7.47;100.00;100083.00;2011512;29;20399;-60
2022/02/16 00:51:48;;;;;;;8.27;4.17;;;;;;;7.46;100.00;100076.13;2010759;29;20509;-59
2022/02/16 00:52:48;;;;;;;10.03;4.73;;;;;;;7.45;100.00;100084.78;2010887;29;20029;-60
2022/02/16 00:53:49;;;;;;;7.37;4.23;;;;;;;7.46;100.00;100076.13;2018586;29;20021;-59
2022/02/16 00:54:50;;;;;;;7.00;4.40;;;;;;;7.48;100.00;100069.09;2011502;29;20441;-61
2022/02/16 00:55:50;;;;;;;7.63;5.45;;;;;;;7.49;100.00;100075.13;2011384;29;20036;-60
2022/02/16 00:56:50;;;;;;;5.93;4.10;;;;;;;7.51;100.00;100073.31;2011422;29;20151;-60
2022/02/16 00:57:51;;;;;;;7.00;3.97;;;;;;;7.50;100.00;100066.44;2011387;29;20376;-60
2022/02/16 00:58:51;;;;;;;6.83;3.63;;;;;;;7.52;100.00;100069.81;2011400;29;20372;-60
2022/02/16 00:59:51;;;;;;;6.17;4.03;;;;;;;7.53;100.00;100071.50;2011301;29;20152;-60
2022/02/16 01:00:52;;;;;;;5.43;3.70;;;;;;;7.53;100.00;100067.13;2018428;29;20542;-61
2022/02/16 01:01:52;;;;;;;9.18;4.45;;;;;;;7.53;100.00;100064.53;2018532;29;20055;-60
2022/02/16 01:02:52;;;;;;;7.87;4.10;;;;;;;7.53;100.00;100055.94;2011378;29;20065;-60
2022/02/16 01:03:53;;;;;;;8.00;4.63;;;;;;;7.52;100.00;100049.06;2018421;29;20037;-60
2022/02/16 01:04:53;;;;;;;5.33;3.77;;;;;;;7.51;100.00;100052.53;2018382;29;20073;-60
2022/02/16 01:05:53;;;;;;;8.20;4.17;;;;;;;7.49;100.00;100050.00;2018409;29;20033;-60
2022/02/16 01:06:53;;;;;;;6.27;3.90;;;;;;;7.50;100.00;100050.84;2011406;29;20502;-60
2022/02/16 01:07:54;;;;;;;4.90;3.80;;;;;;;7.50;100.00;100045.66;2011315;29;20037;-60
2022/02/16 01:08:54;;;;;;;7.70;5.13;;;;;;;7.49;100.00;100038.78;2011366;29;20037;-60
2022/02/16 01:09:54;;;;;;;4.70;3.77;;;;;;;7.51;100.00;100036.97;2011335;29;20035;-61
2022/02/16 01:10:55;;;;;;;5.70;4.47;;;;;;;7.50;100.00;100045.66;2011364;29;20033;-61
2022/02/16 01:11:57;;;;;;;5.28;4.15;;;;;;;7.50;100.00;100038.72;2011302;29;20029;-60
2022/02/16 01:12:57;;;;;;;6.07;3.97;;;;;;;7.50;100.00;100035.28;2011229;29;20034;-60
2022/02/16 01:13:57;;;;;;;6.33;3.97;;;;;;;7.51;100.00;100042.16;2011316;29;20168;-61
2022/02/16 01:14:57;;;;;;;5.73;3.73;;;;;;;7.51;100.00;100039.56;2011298;29;20041;-61
2022/02/16 01:15:58;;;;;;;6.50;4.67;;;;;;;7.51;100.00;100040.41;2011424;29;20065;-59
2022/02/16 01:16:59;;;;;;;7.07;3.65;;;;;;;7.49;100.00;100039.63;2011294;29;20034;-61
2022/02/16 01:18:00;;;;;;;7.93;3.67;;;;;;;7.50;100.00;100040.47;2011264;29;20368;-60
2022/02/16 01:19:19;;;;;;;5.80;4.60;;;;;;;7.51;100.00;100047.34;2018233;29;20037;-59
2022/02/16 01:20:19;;;;;;;4.10;3.58;;;;;;;7.50;100.00;100045.66;2018251;29;20152;-60
2022/02/16 01:21:20;;;;;;;7.50;4.10;;;;;;;7.50;100.00;100043.91;2018319;29;20113;-59
2022/02/16 01:22:20;;;;;;;5.17;3.33;;;;;;;7.51;100.00;100047.34;2018225;29;20029;-60
2022/02/16 01:23:20;;;;;;;6.93;4.43;;;;;;;7.52;100.00;100049.06;2018300;29;20524;-61
2022/02/16 01:24:21;;;;;;;6.27;4.20;;;;;;;7.50;100.00;100040.47;2011169;29;20060;-60
2022/02/16 01:25:21;;;;;;;4.72;3.53;;;;;;;7.50;100.00;100041.31;2011143;29;20037;-59
2022/02/16 01:26:23;;;;;;;5.07;3.40;;;;;;;7.55;100.00;100041.09;2011065;29;20077;-61
2022/02/16 01:27:23;;;;;;;4.82;3.88;;;;;;;7.53;100.00;100037.75;2011132;29;20583;-60
2022/02/16 01:28:23;;;;;;;4.83;2.97;;;;;;;7.54;100.00;100034.22;2011214;29;20033;-61
2022/02/16 01:29:24;;;;;;;4.47;3.23;;;;;;;7.53;100.00;100035.16;2011164;29;20440;-60
2022/02/16 01:30:24;;;;;;;5.23;3.57;;;;;;;7.50;100.00;100027.50;2011170;29;20504;-59
2022/02/16 01:31:24;;;;;;;4.80;4.07;;;;;;;7.51;100.00;100031.75;2011173;29;20025;-60
2022/02/16 01:32:24;;;;;;;5.40;2.53;;;;;;;7.50;100.00;100019.69;2011196;29;20057;-60
2022/02/16 01:33:25;;;;;;;5.40;3.03;;;;;;;7.50;100.00;100024.88;2018157;29;20131;-60
2022/02/16 01:34:25;;;;;;;4.23;2.73;;;;;;;7.52;100.00;100021.31;2018281;29;20070;-59
2022/02/16 01:35:25;;;;;;;4.00;3.17;;;;;;;7.50;100.00;100015.34;2011114;29;20069;-59
2022/02/16 01:36:25;;;;;;;4.70;3.00;;;;;;;7.52;100.00;100017.91;2011005;29;20038;-59
2022/02/16 01:37:26;;;;;;;6.03;3.60;;;;;;;7.51;100.00;100021.38;2011066;29;20366;-60
2022/02/16 01:38:26;;;;;;;4.77;2.90;;;;;;;7.51;100.00;100019.63;2011130;29;20029;-61
2022/02/16 01:39:26;;;;;;;4.87;3.13;;;;;;;7.52;100.00;100007.50;2011048;29;20026;-60
2022/02/16 01:40:26;;;;;;;5.17;3.27;;;;;;;7.51;100.00;100009.25;2011111;29;20030;-60
2022/02/16 01:41:27;;;;;;;4.03;3.20;;;;;;;7.50;100.00;100004.97;2011072;29;20391;-60
2022/02/16 01:42:27;;;;;;;4.93;3.13;;;;;;;7.49;100.00;100002.44;2010499;29;20543;-62
2022/02/16 01:43:27;;;;;;;7.67;3.10;;;;;;;7.49;100.00;99998.06;2010495;29;20109;-62
2022/02/16 01:44:27;;;;;;;3.30;2.70;;;;;;;7.48;100.00;99996.41;2011120;29;20046;-61
2022/02/16 01:45:29;;;;;;;5.27;2.97;;;;;;;7.49;100.00;99997.25;2011108;29;20032;-60
2022/02/16 01:46:30;;;;;;;2.72;2.38;;;;;;;7.50;100.00;99998.94;2011063;29;20551;-61
2022/02/16 01:47:30;;;;;;;4.53;3.13;;;;;;;7.52;100.00;100002.31;2010984;29;20033;-61
2022/02/16 01:48:30;;;;;;;4.67;2.33;;;;;;;7.54;100.00;100005.66;2011053;29;20394;-60
2022/02/16 01:49:32;;;;;;;5.37;2.63;;;;;;;7.54;100.00;100003.94;2018064;29;20049;-61
2022/02/16 01:50:33;;;;;;;4.25;3.10;;;;;;;7.53;100.00;99998.81;2018054;29;20033;-61
2022/02/16 01:51:33;;;;;;;4.90;2.33;;;;;;;7.52;100.00;100002.31;2011035;29;20029;-61
2022/02/16 01:52:34;;;;;;;3.63;2.83;;;;;;;7.51;100.00;100000.59;2011045;29;20082;-61
2022/02/16 01:53:35;;;;;;;4.22;2.25;;;;;;;7.51;100.00;99991.06;2010956;29;20029;-60
2022/02/16 01:54:35;;;;;;;3.85;2.75;;;;;;;7.52;100.00;99997.13;2010945;29;20030;-61
2022/02/16 01:55:35;;;;;;;3.88;2.63;;;;;;;7.51;100.00;99995.41;2010902;29;20483;-60
2022/02/16 01:56:36;;;;;;;5.73;3.57;;;;;;;7.52;100.00;99997.13;2011023;29;20491;-60
2022/02/16 01:57:38;;;;;;;3.60;2.42;;;;;;;7.53;100.00;99996.22;2017949;29;20021;-59
2022/02/16 01:58:40;;;;;;;3.25;2.35;;;;;;;7.53;100.00;99991.84;2017973;29;20029;-60
2022/02/16 01:59:40;;;;;;;4.07;2.83;;;;;;;7.55;100.00;99989.19;2010884;29;20021;-61
2022/02/16 02:00:40;;;;;;;3.40;2.37;;;;;;;7.55;100.00;99982.25;2010293;29;20029;-60
2022/02/16 02:01:41;;;;;;;5.23;2.70;;;;;;;7.56;100.00;99983.09;2010341;29;20045;-61
2022/02/16 02:02:42;;;;;;;3.72;2.83;;;;;;;7.56;100.00;99983.09;2010865;29;20041;-61
2022/02/16 02:03:42;;;;;;;4.50;3.10;;;;;;;7.56;100.00;99983.09;2010264;29;20029;-59
2022/02/16 02:04:43;;;;;;;4.23;2.67;;;;;;;7.55;100.00;99982.25;2010360;29;20045;-60
2022/02/16 02:05:44;;;;;;;5.67;3.20;;;;;;;7.56;100.00;99983.09;2010873;29;20406;-60
2022/02/16 02:06:45;;;;;;;3.63;2.75;;;;;;;7.55;100.00;99971.84;2010901;29;20025;-61
2022/02/16 02:07:46;;;;;;;3.85;2.60;;;;;;;7.55;100.00;99968.41;2010883;29;20026;-60
2022/02/16 02:08:46;;;;;;;5.90;2.70;;;;;;;7.55;100.00;99960.63;2017928;29;20104;-60
2022/02/16 02:09:48;;;;;;;4.40;2.47;;;;;;;7.54;100.00;99964.97;2018015;29;20029;-59
2022/02/16 02:10:48;;;;;;;3.33;2.42;;;;;;;7.55;100.00;99958.03;2010922;29;20028;-60
2022/02/16 02:11:49;;;;;;;2.90;2.23;;;;;;;7.54;100.00;99953.75;2010804;29;20041;-60
2022/02/16 02:12:54;;;;;;;5.00;2.50;;;;;;;7.56;100.00;99952.75;2011004;29;20282;-62
2022/02/16 02:14:00;;;;;;;4.50;2.90;;;;;;;7.56;100.00;99944.97;2010845;29;20112;-59
2022/02/16 02:15:00;;;;;;;4.05;2.70;;;;;;;7.56;100.00;99946.75;2010885;29;20033;-61
2022/02/16 02:16:00;;;;;;;3.23;2.30;;;;;;;7.54;100.00;99935.56;2010901;29;20044;-60
2022/02/16 02:17:01;;;;;;;3.03;2.03;;;;;;;7.54;100.00;99931.22;2010814;29;20029;-60
2022/02/16 02:18:01;;;;;;;3.77;2.20;;;;;;;7.55;100.00;99935.50;2010815;29;20036;-60
2022/02/16 02:19:02;;;;;;;3.27;2.27;;;;;;;7.56;100.00;99925.97;2017790;29;20035;-60
2022/02/16 02:20:03;;;;;;;;;;;;;;;7.60;100.00;99927.53;2018249;29;20108;-60
2022/02/16 02:21:04;;;;;;;3.92;2.50;;;;;;;7.56;100.00;99928.56;2010865;29;19919;-60
2022/02/16 02:22:04;;;;;;;4.60;2.13;;;;;;;7.56;100.00;99931.16;2010884;29;20432;-61
2022/02/16 02:23:04;;;;;;;3.23;1.83;;;;;;;7.55;100.00;99926.84;2017906;29;20437;-61
2022/02/16 02:24:05;;;;;;;3.13;2.50;;;;;;;7.56;100.00;99920.78;2018014;29;20056;-60
2022/02/16 02:25:05;;;;;;;3.53;2.53;;;;;;;7.56;100.00;99921.59;2010696;29;20034;-60
2022/02/16 02:26:06;;;;;;;3.10;2.40;;;;;;;7.56;100.00;99920.78;2010814;29;20037;-60
2022/02/16 02:27:06;;;;;;;5.87;2.87;;;;;;;7.57;100.00;99912.06;2010785;29;20301;-59
2022/02/16 02:28:06;;;;;;;4.03;2.47;;;;;;;7.58;100.00;99913.75;2010763;29;20461;-60
2022/02/16 02:29:06;;;;;;;3.80;2.53;;;;;;;7.56;100.00;99915.59;2010745;29;20029;-61
2022/02/16 02:30:08;;;;;;;4.87;2.43;;;;;;;7.55;100.00;99914.72;2010781;29;20026;-59
2022/02/16 02:31:08;;;;;;;;;;;;;;;7.57;100.00;99917.25;2011109;29;20042;-60
2022/02/16 02:32:08;;;;;;;3.30;1.95;;;;;;;7.55;100.00;99914.72;2010747;29;19920;-60
2022/02/16 02:33:09;;;;;;;3.03;2.00;;;;;;;7.59;100.00;99920.63;2017771;29;20037;-60
2022/02/16 02:34:09;;;;;;;3.53;2.40;;;;;;;7.58;100.00;99909.41;2017793;29;20108;-59
2022/02/16 02:35:11;;;;;;;4.83;2.40;;;;;;;7.60;100.00;99911.94;2010755;29;20033;-60
2022/02/16 02:36:11;;;;;;;4.47;2.40;;;;;;;7.61;100.00;99913.63;2010712;29;20037;-60
2022/02/16 02:37:11;;;;;;;3.30;2.67;;;;;;;7.60;100.00;99901.56;2010426;29;20048;-60
2022/02/16 02:38:12;;;;;;;4.97;2.43;;;;;;;7.64;100.00;99904.84;2010510;29;20551;-60
2022/02/16 02:39:12;;;;;;;5.27;3.40;;;;;;;7.65;100.00;99909.13;2010633;29;20471;-60
2022/02/16 02:40:12;;;;;;;4.50;2.70;;;;;;;7.64;100.00;99908.28;2010736;29;20080;-61
2022/02/16 02:41:13;;;;;;;4.53;2.50;;;;;;;7.65;100.00;99919.50;2010770;29;20037;-63
2022/02/16 02:42:13;;;;;;;3.60;2.40;;;;;;;7.65;100.00;99909.13;2010720;29;20033;-59
2022/02/16 02:43:13;;;;;;;3.53;2.60;;;;;;;7.65;100.00;99903.91;2010728;29;20036;-60
2022/02/16 02:44:13;;;;;;;3.23;1.93;;;;;;;7.65;100.00;99902.19;2010729;29;20464;-61
2022/02/16 02:45:14;;;;;;;4.30;2.23;;;;;;;7.68;100.00;99914.19;2010781;29;20444;-60
2022/02/16 02:46:16;;;;;;;5.20;2.85;;;;;;;7.66;100.00;99909.03;2010691;29;20033;-60
2022/02/16 02:47:16;;;;;;;3.75;2.40;;;;;;;7.66;100.00;99898.66;2009832;29;20548;-60
2022/02/16 02:48:22;;;;;;;3.20;2.40;;;;;;;7.68;100.00;99899.44;2009979;29;20085;-60
2022/02/16 02:49:22;;;;;;;3.63;2.50;;;;;;;7.68;100.00;99890.81;2017612;29;20033;-59
2022/02/16 02:50:23;;;;;;;3.40;2.00;;;;;;;7.68;100.00;99889.06;2017794;29;20109;-59
2022/02/16 02:51:23;;;;;;;4.43;2.23;;;;;;;7.69;100.00;99893.34;2010698;29;20395;-60
2022/02/16 02:52:23;;;;;;;3.57;2.63;;;;;;;7.69;100.00;99898.53;2010559;29;20068;-60
2022/02/16 02:53:24;;;;;;;3.40;2.13;;;;;;;7.69;100.00;99890.72;2010569;29;20097;-60
2022/02/16 02:54:24;;;;;;;4.37;2.40;;;;;;;7.69;100.00;99882.94;2010699;29;20029;-60
2022/02/16 02:55:24;;;;;;;3.60;2.37;;;;;;;7.69;100.00;99884.69;2010690;29;20030;-60
2022/02/16 02:56:25;;;;;;;4.27;2.80;;;;;;;7.68;100.00;99886.47;2010680;29;20033;-60
2022/02/16 02:57:25;;;;;;;3.60;2.50;;;;;;;7.68;100.00;99873.47;2017683;29;20566;-60
2022/02/16 02:58:25;;;;;;;5.73;2.90;;;;;;;7.67;100.00;99882.16;2017852;29;20489;-60
2022/02/16 02:59:25;;;;;;;4.83;2.73;;;;;;;7.67;100.00;99876.13;2010568;29;20399;-61
2022/02/16 03:00:25;;;;;;;3.63;2.53;;;;;;;7.66;100.00;99880.47;2010635;29;20034;-61
2022/02/16 03:01:26;;;;;;;5.63;2.30;;;;;;;7.65;100.00;99886.59;2010544;29;20040;-62
2022/02/16 03:02:26;;;;;;;3.17;2.37;;;;;;;7.67;100.00;99882.16;2010616;29;20044;-60
2022/02/16 03:03:27;;;;;;;5.32;2.88;;;;;;;7.67;100.00;99871.78;2010796;29;20029;-61
2022/02/16 03:04:27;;;;;;;3.67;2.38;;;;;;;7.68;100.00;99881.28;2010746;29;20041;-60
2022/02/16 03:05:28;;;;;;;5.07;2.30;;;;;;;7.70;100.00;99882.03;2010624;29;20040;-61
2022/02/16 03:06:28;;;;;;;4.90;2.43;;;;;;;7.72;100.00;99875.03;2010515;29;20487;-61
2022/02/16 03:07:29;;;;;;;3.50;2.53;;;;;;;7.73;100.00;99881.88;2010605;29;20293;-60
2022/02/16 03:08:29;;;;;;;3.25;2.13;;;;;;;7.71;100.00;99878.53;2010664;29;20029;-60
2022/02/16 03:09:29;;;;;;;3.80;2.10;;;;;;;7.72;100.00;99871.56;2010601;29;20026;-60
2022/02/16 03:10:31;;;;;;;3.23;2.40;;;;;;;7.71;100.00;99878.53;2010659;29;20468;-61
2022/02/16 03:11:31;;;;;;;5.70;2.45;;;;;;;7.72;100.00;99880.22;2010588;29;20471;-61
2022/02/16 03:12:31;;;;;;;3.07;2.20;;;;;;;7.75;100.00;99880.97;2010631;29;20103;-60
2022/02/16 03:13:31;;;;;;;3.00;2.00;;;;;;;7.78;100.00;99873.03;2010501;29;20460;-60
2022/02/16 03:14:31;;;;;;;3.13;2.30;;;;;;;7.77;100.00;99872.19;2010599;29;20029;-60
2022/02/16 03:15:32;;;;;;;3.20;1.83;;;;;;;7.75;100.00;99867.97;2010523;29;20034;-59
2022/02/16 03:16:32;;;;;;;4.13;2.33;;;;;;;7.72;100.00;99869.81;2010574;29;20110;-59
2022/02/16 03:17:32;;;;;;;3.80;2.33;;;;;;;7.73;100.00;99875.84;2010529;29;20041;-60
2022/02/16 03:18:33;;;;;;;3.93;2.20;;;;;;;7.73;100.00;99868.91;2017577;29;20053;-60
2022/02/16 03:19:33;;;;;;;3.65;2.05;;;;;;;7.71;100.00;99862.94;2017584;29;20048;-60
2022/02/16 03:20:34;;;;;;;3.73;1.77;;;;;;;7.71;100.00;99860.34;2010609;29;20090;-60
2022/02/16 03:21:34;;;;;;;3.00;2.00;;;;;;;7.71;100.00;99856.91;2010569;29;20535;-59
2022/02/16 03:22:37;;;;;;;2.67;1.90;;;;;;;7.71;100.00;99855.16;2010617;29;20433;-60
2022/02/16 03:23:37;;;;;;;4.25;2.30;;;;;;;7.69;100.00;99851.78;2010502;29;20025;-60
2022/02/16 03:24:38;;;;;;;3.77;2.23;;;;;;;7.68;100.00;99857.91;2010544;29;20053;-59
2022/02/16 03:25:38;;;;;;;2.90;2.15;;;;;;;7.68;100.00;99851.84;2010534;29;20034;-59
2022/02/16 03:26:38;;;;;;;3.63;2.00;;;;;;;7.67;100.00;99855.38;2010430;29;20066;-59
2022/02/16 03:27:39;;;;;;;2.80;1.93;;;;;;;7.65;100.00;99852.84;2017505;29;20029;-59
2022/02/16 03:28:39;;;;;;;3.37;1.93;;;;;;;7.63;100.00;99852.06;2009879;29;20026;-60
2022/02/16 03:29:39;;;;;;;3.53;1.60;;;;;;;7.65;100.00;99852.84;2009928;29;20025;-59
2022/02/16 03:30:39;;;;;;;3.30;1.93;;;;;;;7.66;100.00;99849.31;2010499;29;20487;-59
2022/02/16 03:31:40;;;;;;;3.40;1.97;;;;;;;7.66;100.00;99849.31;2017491;29;20570;-59
2022/02/16 03:32:40;;;;;;;2.35;1.50;;;;;;;7.66;100.00;99853.69;2009868;29;20024;-59
2022/02/16 03:33:41;;;;;;;2.90;1.67;;;;;;;7.65;100.00;99847.66;2009803;29;20085;-59
2022/02/16 03:34:41;;;;;;;3.27;1.90;;;;;;;7.64;100.00;99851.16;2017492;29;20040;-60
2022/02/16 03:35:41;;;;;;;2.50;1.97;;;;;;;7.63;100.00;99841.66;2009868;29;20040;-60
2022/02/16 03:36:42;;;;;;;2.77;1.77;;;;;;;7.63;100.00;99841.66;2009928;29;20768;-59
2022/02/16 03:37:42;;;;;;;3.57;1.93;;;;;;;7.63;100.00;99844.25;2010435;29;20029;-59
2022/02/16 03:38:42;;;;;;;4.03;1.80;;;;;;;7.64;100.00;99838.19;2010442;29;20057;-59
2022/02/16 03:39:43;;;;;;;3.60;1.73;;;;;;;7.63;100.00;99844.25;2010342;29;20037;-58
2022/02/16 03:40:44;;;;;;;;;;;;;;;7.64;100.00;99840.78;2010914;29;20025;-59
2022/02/16 03:41:44;;;;;;;2.95;2.03;;;;;;;7.65;100.00;99839.84;2010459;29;19994;-59
2022/02/16 03:42:45;;;;;;;2.17;1.75;;;;;;;7.64;100.00;99835.59;2010603;29;20029;-60
2022/02/16 03:43:45;;;;;;;3.87;1.90;;;;;;;7.63;100.00;99833.06;2010486;29;20018;-60
2022/02/16 03:44:45;;;;;;;3.13;2.07;;;;;;;7.62;100.00;99828.78;2010446;29;20025;-60
2022/02/16 03:45:46;;;;;;;2.58;1.80;;;;;;;7.61;100.00;99827.94;2010450;29;20065;-60
2022/02/16 03:46:47;;;;;;;3.03;1.80;;;;;;;7.62;100.00;99821.81;2010314;29;20048;-60
2022/02/16 03:47:47;;;;;;;5.38;2.10;;;;;;;7.62;100.00;99827.00;2009744;29;20302;-60
2022/02/16 03:48:47;;;;;;;2.80;2.00;;;;;;;7.62;100.00;99821.00;2009861;29;20040;-59
2022/02/16 03:49:47;;;;;;;2.70;1.77;;;;;;;7.61;100.00;99820.13;2010265;29;20029;-60
2022/02/16 03:50:48;;;;;;;2.27;1.50;;;;;;;7.60;100.00;99819.28;2011247;29;20483;-60
2022/02/16 03:51:48;;;;;;;3.23;2.17;;;;;;;7.59;100.00;99812.41;2011859;29;20117;-60
2022/02/16 03:52:50;;;;;;;2.03;1.38;;;;;;;7.59;100.00;99812.41;2011885;29;20041;-60
2022/02/16 03:53:50;;;;;;;2.85;1.90;;;;;;;7.58;100.00;99813.34;2011823;29;20058;-60
2022/02/16 03:54:53;;;;;;;4.05;1.90;;;;;;;7.58;100.00;99812.47;2018859;29;20181;-60
2022/02/16 03:55:53;;;;;;;3.38;1.90;;;;;;;7.57;100.00;99816.81;2011198;29;20029;-60
2022/02/16 03:56:54;;;;;;;3.17;2.20;;;;;;;7.58;100.00;99809.88;2011269;29;20424;-60
2022/02/16 03:57:54;;;;;;;2.67;2.27;;;;;;;7.57;100.00;99808.22;2011830;29;20056;-61
2022/02/16 03:58:54;;;;;;;2.33;1.70;;;;;;;7.56;100.00;99807.34;2011818;29;20030;-61
2022/02/16 03:59:54;;;;;;;3.67;1.83;;;;;;;7.55;100.00;99804.81;2011717;29;20021;-60
2022/02/16 04:00:54;;;;;;;3.37;1.70;;;;;;;7.54;100.00;99803.16;2011786;29;20026;-60
2022/02/16 04:01:55;;;;;;;3.10;2.07;;;;;;;7.54;100.00;99797.97;2011856;29;20026;-60
2022/02/16 04:02:56;;;;;;;3.63;2.53;;;;;;;7.53;100.00;99791.91;2011776;29;20483;-60
2022/02/16 04:03:56;;;;;;;3.27;1.90;;;;;;;7.54;100.00;99793.63;2011878;29;20033;-60
2022/02/16 04:04:56;;;;;;;3.77;1.93;;;;;;;7.53;100.00;99791.09;2011776;29;20048;-60
2022/02/16 04:05:56;;;;;;;4.00;1.93;;;;;;;7.54;100.00;99792.78;2018842;29;20586;-60
2022/02/16 04:06:57;;;;;;;2.50;1.70;;;;;;;7.54;100.00;99792.78;2018878;29;20025;-59
2022/02/16 04:07:57;;;;;;;3.47;1.97;;;;;;;7.52;100.00;99789.41;2011812;29;20025;-59
2022/02/16 04:08:57;;;;;;;2.57;1.70;;;;;;;7.54;100.00;99780.63;2018756;29;20120;-60
2022/02/16 04:09:58;;;;;;;3.93;2.37;;;;;;;7.55;100.00;99778.88;2018855;29;20129;-60
2022/02/16 04:10:58;;;;;;;2.53;2.10;;;;;;;7.55;100.00;99774.53;2011760;29;20368;-60
2022/02/16 04:11:58;;;;;;;4.50;2.07;;;;;;;7.56;100.00;99772.78;2011733;29;20041;-60
2022/02/16 04:12:59;;;;;;;2.57;2.10;;;;;;;7.56;100.00;99771.00;2011727;29;20479;-60
2022/02/16 04:13:59;;;;;;;2.17;1.90;;;;;;;7.59;100.00;99764.81;2011789;29;20036;-59
2022/02/16 04:14:59;;;;;;;2.30;1.90;;;;;;;7.61;100.00;99755.22;2011686;29;20372;-60
2022/02/16 04:16:00;;;;;;;2.30;2.00;;;;;;;7.61;100.00;99757.81;2011734;29;20033;-59
2022/02/16 04:17:00;;;;;;;2.40;1.90;;;;;;;7.60;100.00;99756.16;2011686;29;20286;-59
2022/02/16 04:18:00;;;;;;;2.53;1.70;;;;;;;7.59;100.00;99750.09;2011001;29;20097;-60
2022/02/16 04:19:01;;;;;;;2.40;1.63;;;;;;;7.59;100.00;99744.91;2010985;29;20049;-60
2022/02/16 04:20:01;;;;;;;2.37;1.90;;;;;;;7.62;100.00;99743.09;2011649;29;20026;-60
2022/02/16 04:21:02;;;;;;;2.23;1.70;;;;;;;7.61;100.00;99747.44;2011682;29;20045;-61
2022/02/16 04:22:03;;;;;;;2.10;1.67;;;;;;;7.60;100.00;99730.19;2011609;29;20041;-59
2022/02/16 04:23:04;;;;;;;2.78;1.80;;;;;;;7.59;100.00;99723.28;2011685;29;20113;-60
2022/02/16 04:24:04;;;;;;;2.40;1.60;;;;;;;7.59;100.00;99716.34;2011884;29;20487;-61
2022/02/16 04:25:05;;;;;;;2.57;1.67;;;;;;;7.60;100.00;99720.63;2018771;29;20582;-59
2022/02/16 04:26:06;;;;;;;2.55;2.00;;;;;;;7.60;100.00;99714.59;2018785;29;20057;-59
2022/02/16 04:27:06;;;;;;;3.65;2.10;;;;;;;7.62;100.00;99707.56;2011522;29;20066;-59
2022/02/16 04:28:06;;;;;;;1.97;1.57;;;;;;;7.64;100.00;99710.94;2011598;29;20030;-59
2022/02/16 04:29:07;;;;;;;2.90;1.70;;;;;;;7.64;100.00;99708.34;2018628;29;20036;-59
2022/02/16 04:30:08;;;;;;;2.10;1.40;;;;;;;7.63;100.00;99714.44;2018723;29;20033;-59
2022/02/16 04:31:09;;;;;;;3.63;1.73;;;;;;;7.63;100.00;99714.44;2011573;29;20061;-59
2022/02/16 04:32:09;;;;;;;2.88;1.70;;;;;;;7.65;100.00;99702.22;2018583;29;20427;-59
2022/02/16 04:33:09;;;;;;;1.70;1.60;;;;;;;7.66;100.00;99705.66;2018727;29;20033;-59
2022/02/16 04:34:10;;;;;;;2.93;1.63;;;;;;;7.69;100.00;99701.16;2011652;29;20152;-59
2022/02/16 04:35:10;;;;;;;2.00;1.60;;;;;;;7.68;100.00;99689.09;2011590;29;20475;-60
2022/02/16 04:36:10;;;;;;;2.00;1.57;;;;;;;7.69;100.00;99698.56;2018614;29;20065;-59
2022/02/16 04:37:10;;;;;;;2.83;1.50;;;;;;;7.69;100.00;99677.78;2018605;29;20036;-59
2022/02/16 04:38:11;;;;;;;1.60;1.50;;;;;;;7.69;100.00;99682.97;2011582;29;20537;-59
2022/02/16 04:39:12;;;;;;;1.42;1.25;;;;;;;7.68;100.00;99689.09;2011375;29;20093;-60
2022/02/16 04:40:13;;;;;;;1.50;1.27;;;;;;;7.69;100.00;99687.31;2018582;29;20017;-60
2022/02/16 04:41:13;;;;;;;;;;;;;;;7.70;100.00;99687.25;2018961;29;20029;-59
2022/02/16 04:42:14;;;;;;;1.73;1.40;;;;;;;7.70;100.00;99689.84;2011516;29;19964;-59
2022/02/16 04:43:14;;;;;;;1.37;1.17;;;;;;;7.69;100.00;99688.16;2011519;29;20301;-59
2022/02/16 04:44:14;;;;;;;1.57;0.97;;;;;;;7.68;100.00;99686.50;2011516;29;20025;-59